sensor_id;sensor_type;location;lat;lon;timestamp;temperature;humidity
4910;DHT22;2470;49.868;8.660;2023-02-22T00:00:15;9.40;99.90
4910;DHT22;2470;49.868;8.660;2023-02-22T00:02:46;9.30;99.90
4910;DHT22;2470;49.868;8.660;2023-02-22T00:05:13;9.30;99.90
4910;DHT22;2470;49.868;8.660;2023-02-22T00:07:42;9.30;99.90
4910;DHT22;2470;49.868;8.660;2023-02-22T00:10:09;9.30;99.90
4910;DHT22;2470;49.868;8.660;2023-02-22T00:12:41;9.30;99.90
4910;DHT22;2470;49.868;8.660;2023-02-22T00:15:08;9.30;99.90
4910;DHT22;2470;49.868;8.660;2023-02-22T00:17:34;9.30;99.90
4910;DHT22;2470;49.868;8.660;2023-02-22T00:20:00;9.20;99.90
4910;DHT22;2470;49.868;8.660;2023-02-22T00:22:26;9.20;99.90
4910;DHT22;2470;49.868;8.660;2023-02-22T00:24:51;9.20;99.90
4910;DHT22;2470;49.868;8.660;2023-02-22T00:27:17;9.20;99.90
4910;DHT22;2470;49.868;8.660;2023-02-22T00:29:46;9.20;99.90
4910;DHT22;2470;49.868;8.660;2023-02-22T00:32:11;9.10;99.90
4910;DHT22;2470;49.868;8.660;2023-02-22T00:34:37;9.20;99.90
4910;DHT22;2470;49.868;8.660;2023-02-22T00:37:03;9.10;99.90
4910;DHT22;2470;49.868;8.660;2023-02-22T00:39:31;9.00;99.90
4910;DHT22;2470;49.868;8.660;2023-02-22T00:41:57;9.00;99.90
4910;DHT22;2470;49.868;8.660;2023-02-22T00:44:22;9.00;99.90
4910;DHT22;2470;49.868;8.660;2023-02-22T00:46:48;9.00;99.90
4910;DHT22;2470;49.868;8.660;2023-02-22T00:49:14;8.90;99.90
4910;DHT22;2470;49.868;8.660;2023-02-22T00:51:40;8.90;99.90
4910;DHT22;2470;49.868;8.660;2023-02-22T00:54:06;8.90;99.90
4910;DHT22;2470;49.868;8.660;2023-02-22T00:56:33;8.90;99.90
4910;DHT22;2470;49.868;8.660;2023-02-22T00:58:59;8.90;99.90
4910;DHT22;2470;49.868;8.660;2023-02-22T01:01:28;8.90;99.90
4910;DHT22;2470;49.868;8.660;2023-02-22T01:03:54;8.90;99.90
4910;DHT22;2470;49.868;8.660;2023-02-22T01:06:19;8.90;99.90
4910;DHT22;2470;49.868;8.660;2023-02-22T01:08:46;8.80;99.90
4910;DHT22;2470;49.868;8.660;2023-02-22T01:11:13;8.80;99.90
4910;DHT22;2470;49.868;8.660;2023-02-22T01:13:39;8.80;99.90
4910;DHT22;2470;49.868;8.660;2023-02-22T01:16:05;8.80;99.90
4910;DHT22;2470;49.868;8.660;2023-02-22T01:18:34;8.70;99.90
4910;DHT22;2470;49.868;8.660;2023-02-22T01:21:00;8.70;99.90
4910;DHT22;2470;49.868;8.660;2023-02-22T01:23:26;8.70;99.90
4910;DHT22;2470;49.868;8.660;2023-02-22T01:25:51;8.70;99.90
4910;DHT22;2470;49.868;8.660;2023-02-22T01:28:17;8.60;99.90
4910;DHT22;2470;49.868;8.660;2023-02-22T01:30:43;8.70;99.90
4910;DHT22;2470;49.868;8.660;2023-02-22T01:33:08;8.60;99.90
4910;DHT22;2470;49.868;8.660;2023-02-22T01:35:36;8.60;99.90
4910;DHT22;2470;49.868;8.660;2023-02-22T01:38:03;8.50;99.90
4910;DHT22;2470;49.868;8.660;2023-02-22T01:40:31;8.50;99.90
4910;DHT22;2470;49.868;8.660;2023-02-22T01:43:00;8.50;99.90
4910;DHT22;2470;49.868;8.660;2023-02-22T01:50:32;8.50;99.90
4910;DHT22;2470;49.868;8.660;2023-02-22T01:52:59;8.50;99.90
4910;DHT22;2470;49.868;8.660;2023-02-22T01:55:26;8.50;99.90
4910;DHT22;2470;49.868;8.660;2023-02-22T01:57:52;8.50;99.90
4910;DHT22;2470;49.868;8.660;2023-02-22T02:00:19;8.50;99.90
4910;DHT22;2470;49.868;8.660;2023-02-22T02:02:54;8.40;99.90
4910;DHT22;2470;49.868;8.660;2023-02-22T02:05:24;8.40;99.90
4910;DHT22;2470;49.868;8.660;2023-02-22T02:07:50;8.40;99.90
4910;DHT22;2470;49.868;8.660;2023-02-22T02:10:16;8.40;99.90
4910;DHT22;2470;49.868;8.660;2023-02-22T02:12:44;8.40;99.90
4910;DHT22;2470;49.868;8.660;2023-02-22T02:17:46;8.40;99.90
4910;DHT22;2470;49.868;8.660;2023-02-22T02:20:26;8.30;99.90
4910;DHT22;2470;49.868;8.660;2023-02-22T02:23:03;8.30;99.90
4910;DHT22;2470;49.868;8.660;2023-02-22T02:28:45;8.30;99.90
4910;DHT22;2470;49.868;8.660;2023-02-22T02:33:59;8.20;99.90
4910;DHT22;2470;49.868;8.660;2023-02-22T02:36:38;8.20;99.90
4910;DHT22;2470;49.868;8.660;2023-02-22T02:39:19;8.20;99.90
4910;DHT22;2470;49.868;8.660;2023-02-22T02:41:50;8.20;99.90
4910;DHT22;2470;49.868;8.660;2023-02-22T02:44:43;8.10;99.90
4910;DHT22;2470;49.868;8.660;2023-02-22T02:47:12;8.10;99.90
4910;DHT22;2470;49.868;8.660;2023-02-22T02:49:45;8.10;99.90
4910;DHT22;2470;49.868;8.660;2023-02-22T02:52:14;8.10;99.90
4910;DHT22;2470;49.868;8.660;2023-02-22T02:54:41;8.10;99.90
4910;DHT22;2470;49.868;8.660;2023-02-22T02:57:07;8.10;99.90
4910;DHT22;2470;49.868;8.660;2023-02-22T02:59:36;8.10;99.90
4910;DHT22;2470;49.868;8.660;2023-02-22T03:02:27;8.10;99.90
4910;DHT22;2470;49.868;8.660;2023-02-22T03:10:42;8.10;99.90
4910;DHT22;2470;49.868;8.660;2023-02-22T03:19:12;8.00;99.90
4910;DHT22;2470;49.868;8.660;2023-02-22T03:22:04;8.00;99.90
4910;DHT22;2470;49.868;8.660;2023-02-22T03:24:45;7.90;99.90
4910;DHT22;2470;49.868;8.660;2023-02-22T03:30:11;7.90;99.90
4910;DHT22;2470;49.868;8.660;2023-02-22T03:32:40;7.90;99.90
4910;DHT22;2470;49.868;8.660;2023-02-22T03:35:18;7.90;99.90
4910;DHT22;2470;49.868;8.660;2023-02-22T03:37:48;7.90;99.90
4910;DHT22;2470;49.868;8.660;2023-02-22T03:40:18;7.90;99.90
4910;DHT22;2470;49.868;8.660;2023-02-22T03:42:53;7.90;99.90
4910;DHT22;2470;49.868;8.660;2023-02-22T03:45:20;7.90;99.90
4910;DHT22;2470;49.868;8.660;2023-02-22T03:48:03;7.90;99.90
4910;DHT22;2470;49.868;8.660;2023-02-22T03:50:34;7.80;99.90
4910;DHT22;2470;49.868;8.660;2023-02-22T03:53:00;7.80;99.90
4910;DHT22;2470;49.868;8.660;2023-02-22T03:55:26;7.70;99.90
4910;DHT22;2470;49.868;8.660;2023-02-22T03:57:57;7.70;99.90
4910;DHT22;2470;49.868;8.660;2023-02-22T04:00:26;7.70;99.90
4910;DHT22;2470;49.868;8.660;2023-02-22T04:02:52;7.70;99.90
4910;DHT22;2470;49.868;8.660;2023-02-22T04:05:18;7.70;99.90
4910;DHT22;2470;49.868;8.660;2023-02-22T04:07:43;7.70;99.90
4910;DHT22;2470;49.868;8.660;2023-02-22T04:10:11;7.70;99.90
4910;DHT22;2470;49.868;8.660;2023-02-22T04:12:37;7.70;99.90
4910;DHT22;2470;49.868;8.660;2023-02-22T04:15:04;7.70;99.90
4910;DHT22;2470;49.868;8.660;2023-02-22T04:17:30;7.70;99.90
4910;DHT22;2470;49.868;8.660;2023-02-22T04:19:55;7.70;99.90
4910;DHT22;2470;49.868;8.660;2023-02-22T04:22:21;7.70;99.90
4910;DHT22;2470;49.868;8.660;2023-02-22T04:24:46;7.70;99.90
4910;DHT22;2470;49.868;8.660;2023-02-22T04:27:13;7.70;99.90
4910;DHT22;2470;49.868;8.660;2023-02-22T04:29:39;7.70;99.90
4910;DHT22;2470;49.868;8.660;2023-02-22T04:32:05;7.60;99.90
4910;DHT22;2470;49.868;8.660;2023-02-22T04:34:31;7.60;99.90
4910;DHT22;2470;49.868;8.660;2023-02-22T04:36:56;7.50;99.90
4910;DHT22;2470;49.868;8.660;2023-02-22T04:39:22;7.50;99.90
4910;DHT22;2470;49.868;8.660;2023-02-22T04:41:47;7.50;99.90
4910;DHT22;2470;49.868;8.660;2023-02-22T04:44:13;7.50;99.90
4910;DHT22;2470;49.868;8.660;2023-02-22T04:46:38;7.50;99.90
4910;DHT22;2470;49.868;8.660;2023-02-22T04:49:04;7.50;99.90
4910;DHT22;2470;49.868;8.660;2023-02-22T04:51:30;7.50;99.90
4910;DHT22;2470;49.868;8.660;2023-02-22T04:53:55;7.50;99.90
4910;DHT22;2470;49.868;8.660;2023-02-22T04:56:21;7.40;99.90
4910;DHT22;2470;49.868;8.660;2023-02-22T04:58:47;7.40;99.90
4910;DHT22;2470;49.868;8.660;2023-02-22T05:01:14;7.40;99.90
4910;DHT22;2470;49.868;8.660;2023-02-22T05:03:40;7.40;99.90
4910;DHT22;2470;49.868;8.660;2023-02-22T05:06:06;7.40;99.90
4910;DHT22;2470;49.868;8.660;2023-02-22T05:08:32;7.40;99.90
4910;DHT22;2470;49.868;8.660;2023-02-22T05:10:57;7.40;99.90
4910;DHT22;2470;49.868;8.660;2023-02-22T05:13:23;7.40;99.90
4910;DHT22;2470;49.868;8.660;2023-02-22T05:15:48;7.30;99.90
4910;DHT22;2470;49.868;8.660;2023-02-22T05:18:14;7.30;99.90
4910;DHT22;2470;49.868;8.660;2023-02-22T05:20:40;7.30;99.90
4910;DHT22;2470;49.868;8.660;2023-02-22T05:23:05;7.30;99.90
4910;DHT22;2470;49.868;8.660;2023-02-22T05:25:31;7.30;99.90
4910;DHT22;2470;49.868;8.660;2023-02-22T05:28:04;7.30;99.90
4910;DHT22;2470;49.868;8.660;2023-02-22T05:30:33;7.30;99.90
4910;DHT22;2470;49.868;8.660;2023-02-22T05:32:59;7.30;99.90
4910;DHT22;2470;49.868;8.660;2023-02-22T05:35:25;7.20;99.90
4910;DHT22;2470;49.868;8.660;2023-02-22T05:37:51;7.20;99.90
4910;DHT22;2470;49.868;8.660;2023-02-22T05:40:22;7.20;99.90
4910;DHT22;2470;49.868;8.660;2023-02-22T05:42:49;7.20;99.90
4910;DHT22;2470;49.868;8.660;2023-02-22T05:45:16;7.20;99.90
4910;DHT22;2470;49.868;8.660;2023-02-22T05:47:43;7.20;99.90
4910;DHT22;2470;49.868;8.660;2023-02-22T05:50:09;7.10;99.90
4910;DHT22;2470;49.868;8.660;2023-02-22T05:52:35;7.10;99.90
4910;DHT22;2470;49.868;8.660;2023-02-22T05:55:00;7.10;99.90
4910;DHT22;2470;49.868;8.660;2023-02-22T05:57:26;7.10;99.90
4910;DHT22;2470;49.868;8.660;2023-02-22T05:59:51;7.10;99.90
4910;DHT22;2470;49.868;8.660;2023-02-22T06:02:17;7.10;99.90
4910;DHT22;2470;49.868;8.660;2023-02-22T06:04:46;7.10;99.90
4910;DHT22;2470;49.868;8.660;2023-02-22T06:07:13;7.00;99.90
4910;DHT22;2470;49.868;8.660;2023-02-22T06:09:38;7.20;99.90
4910;DHT22;2470;49.868;8.660;2023-02-22T06:12:04;7.20;99.90
4910;DHT22;2470;49.868;8.660;2023-02-22T06:14:30;7.20;99.90
4910;DHT22;2470;49.868;8.660;2023-02-22T06:16:56;7.20;99.90
4910;DHT22;2470;49.868;8.660;2023-02-22T06:19:22;7.20;99.90
4910;DHT22;2470;49.868;8.660;2023-02-22T06:21:52;7.30;99.90
4910;DHT22;2470;49.868;8.660;2023-02-22T06:24:18;7.30;99.90
4910;DHT22;2470;49.868;8.660;2023-02-22T06:26:44;7.30;99.90
4910;DHT22;2470;49.868;8.660;2023-02-22T06:29:10;7.30;99.90
4910;DHT22;2470;49.868;8.660;2023-02-22T06:31:35;7.30;99.90
4910;DHT22;2470;49.868;8.660;2023-02-22T06:34:01;7.30;99.90
4910;DHT22;2470;49.868;8.660;2023-02-22T06:36:27;7.30;99.90
4910;DHT22;2470;49.868;8.660;2023-02-22T06:38:55;7.30;99.90
4910;DHT22;2470;49.868;8.660;2023-02-22T06:41:20;7.30;99.90
4910;DHT22;2470;49.868;8.660;2023-02-22T06:43:47;7.30;99.90
4910;DHT22;2470;49.868;8.660;2023-02-22T06:46:13;7.30;99.90
4910;DHT22;2470;49.868;8.660;2023-02-22T06:48:39;7.30;99.90
4910;DHT22;2470;49.868;8.660;2023-02-22T06:51:08;7.10;99.90
4910;DHT22;2470;49.868;8.660;2023-02-22T06:53:34;7.40;99.90
4910;DHT22;2470;49.868;8.660;2023-02-22T06:56:00;7.40;99.90
4910;DHT22;2470;49.868;8.660;2023-02-22T06:58:26;7.40;99.90
4910;DHT22;2470;49.868;8.660;2023-02-22T07:00:52;7.50;99.90
4910;DHT22;2470;49.868;8.660;2023-02-22T07:03:18;7.60;99.90
4910;DHT22;2470;49.868;8.660;2023-02-22T07:05:44;7.60;99.90
4910;DHT22;2470;49.868;8.660;2023-02-22T07:08:10;7.70;99.90
4910;DHT22;2470;49.868;8.660;2023-02-22T07:10:37;7.70;99.90
4910;DHT22;2470;49.868;8.660;2023-02-22T07:13:04;7.80;99.90
4910;DHT22;2470;49.868;8.660;2023-02-22T07:15:31;7.80;99.90
4910;DHT22;2470;49.868;8.660;2023-02-22T07:17:57;7.80;99.90
4910;DHT22;2470;49.868;8.660;2023-02-22T07:20:23;7.70;99.90
4910;DHT22;2470;49.868;8.660;2023-02-22T07:22:49;7.60;99.90
4910;DHT22;2470;49.868;8.660;2023-02-22T07:25:15;7.40;99.90
4910;DHT22;2470;49.868;8.660;2023-02-22T07:27:41;7.30;99.90
4910;DHT22;2470;49.868;8.660;2023-02-22T07:32:42;7.10;99.90
4910;DHT22;2470;49.868;8.660;2023-02-22T07:35:17;7.00;99.90
4910;DHT22;2470;49.868;8.660;2023-02-22T07:37:42;7.00;99.90
4910;DHT22;2470;49.868;8.660;2023-02-22T07:40:09;7.00;99.90
4910;DHT22;2470;49.868;8.660;2023-02-22T07:42:59;7.00;99.90
4910;DHT22;2470;49.868;8.660;2023-02-22T07:45:27;6.90;99.90
4910;DHT22;2470;49.868;8.660;2023-02-22T07:47:53;6.90;99.90
4910;DHT22;2470;49.868;8.660;2023-02-22T07:50:23;6.90;99.90
4910;DHT22;2470;49.868;8.660;2023-02-22T07:52:50;6.90;99.90
4910;DHT22;2470;49.868;8.660;2023-02-22T07:55:19;6.80;99.90
4910;DHT22;2470;49.868;8.660;2023-02-22T07:57:46;6.80;99.90
4910;DHT22;2470;49.868;8.660;2023-02-22T08:00:14;6.80;99.90
4910;DHT22;2470;49.868;8.660;2023-02-22T08:02:41;7.00;99.90
4910;DHT22;2470;49.868;8.660;2023-02-22T08:05:09;6.90;99.90
4910;DHT22;2470;49.868;8.660;2023-02-22T08:07:36;6.90;99.90
4910;DHT22;2470;49.868;8.660;2023-02-22T08:10:01;6.80;99.90
4910;DHT22;2470;49.868;8.660;2023-02-22T08:12:31;6.90;99.90
4910;DHT22;2470;49.868;8.660;2023-02-22T08:14:57;6.90;99.90
4910;DHT22;2470;49.868;8.660;2023-02-22T08:17:22;7.00;99.90
4910;DHT22;2470;49.868;8.660;2023-02-22T08:19:48;7.00;99.90
4910;DHT22;2470;49.868;8.660;2023-02-22T08:22:13;7.20;99.90
4910;DHT22;2470;49.868;8.660;2023-02-22T08:24:38;7.30;99.90
4910;DHT22;2470;49.868;8.660;2023-02-22T08:27:05;7.40;99.90
4910;DHT22;2470;49.868;8.660;2023-02-22T08:29:30;7.50;99.90
4910;DHT22;2470;49.868;8.660;2023-02-22T08:32:01;7.50;99.90
4910;DHT22;2470;49.868;8.660;2023-02-22T08:34:27;7.70;99.90
4910;DHT22;2470;49.868;8.660;2023-02-22T08:36:53;7.70;99.90
4910;DHT22;2470;49.868;8.660;2023-02-22T08:39:18;7.80;99.90
4910;DHT22;2470;49.868;8.660;2023-02-22T08:41:44;7.90;99.90
4910;DHT22;2470;49.868;8.660;2023-02-22T08:44:09;7.90;99.90
4910;DHT22;2470;49.868;8.660;2023-02-22T08:46:35;7.90;99.90
4910;DHT22;2470;49.868;8.660;2023-02-22T08:49:00;8.00;99.90
4910;DHT22;2470;49.868;8.660;2023-02-22T08:51:27;8.10;99.90
4910;DHT22;2470;49.868;8.660;2023-02-22T08:53:53;8.20;99.90
4910;DHT22;2470;49.868;8.660;2023-02-22T08:56:19;8.30;99.90
4910;DHT22;2470;49.868;8.660;2023-02-22T08:58:45;8.30;99.90
4910;DHT22;2470;49.868;8.660;2023-02-22T09:01:10;8.40;99.90
4910;DHT22;2470;49.868;8.660;2023-02-22T09:03:36;8.40;99.90
4910;DHT22;2470;49.868;8.660;2023-02-22T09:06:03;8.40;99.90
4910;DHT22;2470;49.868;8.660;2023-02-22T09:08:28;8.30;99.90
4910;DHT22;2470;49.868;8.660;2023-02-22T09:10:54;8.30;99.90
4910;DHT22;2470;49.868;8.660;2023-02-22T09:13:19;8.40;99.90
4910;DHT22;2470;49.868;8.660;2023-02-22T09:15:45;8.40;99.90
4910;DHT22;2470;49.868;8.660;2023-02-22T09:18:13;8.50;99.90
4910;DHT22;2470;49.868;8.660;2023-02-22T09:20:39;8.50;99.90
4910;DHT22;2470;49.868;8.660;2023-02-22T09:23:08;8.60;99.90
4910;DHT22;2470;49.868;8.660;2023-02-22T09:25:34;8.60;99.90
4910;DHT22;2470;49.868;8.660;2023-02-22T09:28:00;8.60;99.90
4910;DHT22;2470;49.868;8.660;2023-02-22T09:30:35;8.60;99.90
4910;DHT22;2470;49.868;8.660;2023-02-22T09:35:30;8.90;99.90
4910;DHT22;2470;49.868;8.660;2023-02-22T09:37:58;9.00;99.90
4910;DHT22;2470;49.868;8.660;2023-02-22T09:40:30;9.20;99.90
4910;DHT22;2470;49.868;8.660;2023-02-22T09:43:08;9.30;99.90
4910;DHT22;2470;49.868;8.660;2023-02-22T09:46:00;9.30;99.90
4910;DHT22;2470;49.868;8.660;2023-02-22T09:48:33;9.40;99.90
4910;DHT22;2470;49.868;8.660;2023-02-22T09:51:01;9.50;99.90
4910;DHT22;2470;49.868;8.660;2023-02-22T09:53:41;9.60;99.90
4910;DHT22;2470;49.868;8.660;2023-02-22T09:56:13;9.70;99.90
4910;DHT22;2470;49.868;8.660;2023-02-22T09:58:53;9.80;99.90
4910;DHT22;2470;49.868;8.660;2023-02-22T10:04:01;10.00;99.90
4910;DHT22;2470;49.868;8.660;2023-02-22T10:06:29;10.00;99.90
4910;DHT22;2470;49.868;8.660;2023-02-22T10:08:59;10.20;99.90
4910;DHT22;2470;49.868;8.660;2023-02-22T10:11:48;10.30;99.90
4910;DHT22;2470;49.868;8.660;2023-02-22T10:14:33;10.40;99.90
4910;DHT22;2470;49.868;8.660;2023-02-22T10:17:35;10.40;99.90
4910;DHT22;2470;49.868;8.660;2023-02-22T10:20:13;10.50;99.90
4910;DHT22;2470;49.868;8.660;2023-02-22T10:25:35;10.60;99.90
4910;DHT22;2470;49.868;8.660;2023-02-22T10:28:12;10.70;99.90
4910;DHT22;2470;49.868;8.660;2023-02-22T10:30:50;10.90;99.90
4910;DHT22;2470;49.868;8.660;2023-02-22T10:33:25;10.90;99.90
4910;DHT22;2470;49.868;8.660;2023-02-22T10:35:54;11.10;99.90
4910;DHT22;2470;49.868;8.660;2023-02-22T10:38:20;11.30;99.90
4910;DHT22;2470;49.868;8.660;2023-02-22T10:41:22;11.30;99.90
4910;DHT22;2470;49.868;8.660;2023-02-22T10:43:51;11.40;99.90
4910;DHT22;2470;49.868;8.660;2023-02-22T10:46:20;11.50;99.90
4910;DHT22;2470;49.868;8.660;2023-02-22T10:48:49;11.60;99.90
4910;DHT22;2470;49.868;8.660;2023-02-22T10:51:15;11.50;99.90
4910;DHT22;2470;49.868;8.660;2023-02-22T10:53:41;11.70;99.90
4910;DHT22;2470;49.868;8.660;2023-02-22T10:56:21;11.80;99.90
4910;DHT22;2470;49.868;8.660;2023-02-22T10:58:56;12.00;99.90
4910;DHT22;2470;49.868;8.660;2023-02-22T11:04:04;12.20;99.90
4910;DHT22;2470;49.868;8.660;2023-02-22T11:06:32;12.20;99.90
4910;DHT22;2470;49.868;8.660;2023-02-22T11:09:16;12.30;99.90
4910;DHT22;2470;49.868;8.660;2023-02-22T11:11:45;12.40;99.90
4910;DHT22;2470;49.868;8.660;2023-02-22T11:14:23;12.40;99.90
4910;DHT22;2470;49.868;8.660;2023-02-22T11:16:51;12.40;99.90
4910;DHT22;2470;49.868;8.660;2023-02-22T11:19:25;12.50;99.90
4910;DHT22;2470;49.868;8.660;2023-02-22T11:21:54;12.60;99.90
4910;DHT22;2470;49.868;8.660;2023-02-22T11:24:22;12.70;99.90
4910;DHT22;2470;49.868;8.660;2023-02-22T11:26:54;12.80;99.90
4910;DHT22;2470;49.868;8.660;2023-02-22T11:32:01;12.90;99.90
4910;DHT22;2470;49.868;8.660;2023-02-22T11:34:38;12.80;99.90
4910;DHT22;2470;49.868;8.660;2023-02-22T11:37:28;12.80;99.90
4910;DHT22;2470;49.868;8.660;2023-02-22T11:40:16;12.90;99.90
4910;DHT22;2470;49.868;8.660;2023-02-22T11:42:44;13.10;99.90
4910;DHT22;2470;49.868;8.660;2023-02-22T11:45:20;13.20;99.90
4910;DHT22;2470;49.868;8.660;2023-02-22T11:47:51;13.30;99.90
4910;DHT22;2470;49.868;8.660;2023-02-22T11:56:12;13.70;99.90
4910;DHT22;2470;49.868;8.660;2023-02-22T11:58:52;13.80;99.90
4910;DHT22;2470;49.868;8.660;2023-02-22T12:10:03;14.00;99.90
4910;DHT22;2470;49.868;8.660;2023-02-22T12:15:07;14.10;99.90
4910;DHT22;2470;49.868;8.660;2023-02-22T12:17:43;14.20;99.90
4910;DHT22;2470;49.868;8.660;2023-02-22T12:20:23;14.30;99.90
4910;DHT22;2470;49.868;8.660;2023-02-22T12:22:59;14.40;99.90
4910;DHT22;2470;49.868;8.660;2023-02-22T12:25:35;14.70;99.90
4910;DHT22;2470;49.868;8.660;2023-02-22T12:28:33;14.70;99.90
4910;DHT22;2470;49.868;8.660;2023-02-22T12:31:12;15.00;99.90
4910;DHT22;2470;49.868;8.660;2023-02-22T12:36:17;15.60;99.90
4910;DHT22;2470;49.868;8.660;2023-02-22T12:38:49;16.10;99.50
4910;DHT22;2470;49.868;8.660;2023-02-22T12:41:24;16.50;98.80
4910;DHT22;2470;49.868;8.660;2023-02-22T12:44:09;16.90;97.60
4910;DHT22;2470;49.868;8.660;2023-02-22T12:46:49;16.70;96.80
4910;DHT22;2470;49.868;8.660;2023-02-22T12:49:32;16.90;97.10
4910;DHT22;2470;49.868;8.660;2023-02-22T12:55:22;16.90;96.50
4910;DHT22;2470;49.868;8.660;2023-02-22T13:00:34;17.30;96.10
4910;DHT22;2470;49.868;8.660;2023-02-22T13:05:50;18.60;94.50
4910;DHT22;2470;49.868;8.660;2023-02-22T13:08:31;19.30;94.00
4910;DHT22;2470;49.868;8.660;2023-02-22T13:11:04;20.20;92.00
4910;DHT22;2470;49.868;8.660;2023-02-22T13:13:35;20.50;90.10
4910;DHT22;2470;49.868;8.660;2023-02-22T13:16:17;20.50;89.00
4910;DHT22;2470;49.868;8.660;2023-02-22T13:19:15;20.40;87.60
4910;DHT22;2470;49.868;8.660;2023-02-22T13:21:57;20.40;88.70
4910;DHT22;2470;49.868;8.660;2023-02-22T13:24:34;20.90;86.70
4910;DHT22;2470;49.868;8.660;2023-02-22T13:27:09;21.30;85.30
4910;DHT22;2470;49.868;8.660;2023-02-22T13:29:40;21.70;83.50
4910;DHT22;2470;49.868;8.660;2023-02-22T13:35:18;23.90;79.00
4910;DHT22;2470;49.868;8.660;2023-02-22T13:40:58;25.40;71.80
4910;DHT22;2470;49.868;8.660;2023-02-22T13:46:24;25.30;67.80
4910;DHT22;2470;49.868;8.660;2023-02-22T13:51:52;25.60;63.30
4910;DHT22;2470;49.868;8.660;2023-02-22T13:54:45;25.50;63.60
4910;DHT22;2470;49.868;8.660;2023-02-22T13:57:22;25.70;63.50
4910;DHT22;2470;49.868;8.660;2023-02-22T14:13:09;27.90;56.50
4910;DHT22;2470;49.868;8.660;2023-02-22T14:15:35;27.50;55.80
4910;DHT22;2470;49.868;8.660;2023-02-22T14:20:30;25.10;56.60
4910;DHT22;2470;49.868;8.660;2023-02-22T14:23:23;24.10;58.90
4910;DHT22;2470;49.868;8.660;2023-02-22T14:25:43;24.00;60.20
4910;DHT22;2470;49.868;8.660;2023-02-22T14:31:12;23.70;60.10
4910;DHT22;2470;49.868;8.660;2023-02-22T14:33:58;23.50;60.60
4910;DHT22;2470;49.868;8.660;2023-02-22T14:39:19;23.00;61.10
4910;DHT22;2470;49.868;8.660;2023-02-22T14:41:56;22.80;62.20
4910;DHT22;2470;49.868;8.660;2023-02-22T14:44:33;22.70;62.90
4910;DHT22;2470;49.868;8.660;2023-02-22T14:47:03;22.50;62.80
4910;DHT22;2470;49.868;8.660;2023-02-22T14:49:34;22.30;62.50
4910;DHT22;2470;49.868;8.660;2023-02-22T14:52:05;21.60;63.20
4910;DHT22;2470;49.868;8.660;2023-02-22T14:54:50;21.10;64.20
4910;DHT22;2470;49.868;8.660;2023-02-22T14:57:46;20.80;65.40
4910;DHT22;2470;49.868;8.660;2023-02-22T15:00:36;20.90;66.50
4910;DHT22;2470;49.868;8.660;2023-02-22T15:03:02;20.80;65.10
4910;DHT22;2470;49.868;8.660;2023-02-22T15:05:35;20.30;65.50
4910;DHT22;2470;49.868;8.660;2023-02-22T15:08:06;19.90;66.30
4910;DHT22;2470;49.868;8.660;2023-02-22T15:10:43;19.50;67.50
4910;DHT22;2470;49.868;8.660;2023-02-22T15:13:23;19.30;68.60
4910;DHT22;2470;49.868;8.660;2023-02-22T15:16:03;19.30;69.20
4910;DHT22;2470;49.868;8.660;2023-02-22T15:18:43;19.10;69.40
4910;DHT22;2470;49.868;8.660;2023-02-22T15:21:11;18.80;69.80
4910;DHT22;2470;49.868;8.660;2023-02-22T15:28:56;17.90;72.60
4910;DHT22;2470;49.868;8.660;2023-02-22T15:31:32;17.70;72.80
4910;DHT22;2470;49.868;8.660;2023-02-22T15:36:40;17.20;74.80
4910;DHT22;2470;49.868;8.660;2023-02-22T15:39:05;17.00;75.90
4910;DHT22;2470;49.868;8.660;2023-02-22T15:41:42;16.90;76.20
4910;DHT22;2470;49.868;8.660;2023-02-22T15:44:09;16.80;76.40
4910;DHT22;2470;49.868;8.660;2023-02-22T15:46:38;16.70;76.60
4910;DHT22;2470;49.868;8.660;2023-02-22T15:51:37;16.40;78.30
4910;DHT22;2470;49.868;8.660;2023-02-22T15:54:04;16.30;79.00
4910;DHT22;2470;49.868;8.660;2023-02-22T15:56:32;16.20;79.50
4910;DHT22;2470;49.868;8.660;2023-02-22T15:59:06;16.10;80.40
4910;DHT22;2470;49.868;8.660;2023-02-22T16:01:51;16.00;80.90
4910;DHT22;2470;49.868;8.660;2023-02-22T16:04:23;15.90;81.90
4910;DHT22;2470;49.868;8.660;2023-02-22T16:06:53;15.80;81.70
4910;DHT22;2470;49.868;8.660;2023-02-22T16:09:26;15.60;82.60
4910;DHT22;2470;49.868;8.660;2023-02-22T16:19:53;15.10;86.40
4910;DHT22;2470;49.868;8.660;2023-02-22T16:22:34;15.00;86.60
4910;DHT22;2470;49.868;8.660;2023-02-22T16:28:26;14.80;88.50
4910;DHT22;2470;49.868;8.660;2023-02-22T16:30:57;14.80;89.70
4910;DHT22;2470;49.868;8.660;2023-02-22T16:33:23;14.60;90.20
4910;DHT22;2470;49.868;8.660;2023-02-22T16:35:49;14.60;91.10
4910;DHT22;2470;49.868;8.660;2023-02-22T16:38:18;14.60;92.20
4910;DHT22;2470;49.868;8.660;2023-02-22T16:43:19;14.40;94.40
4910;DHT22;2470;49.868;8.660;2023-02-22T16:45:45;14.40;95.20
4910;DHT22;2470;49.868;8.660;2023-02-22T16:48:32;14.30;95.90
4910;DHT22;2470;49.868;8.660;2023-02-22T16:51:08;14.10;96.60
4910;DHT22;2470;49.868;8.660;2023-02-22T16:53:39;14.00;97.30
4910;DHT22;2470;49.868;8.660;2023-02-22T16:56:07;13.90;97.90
4910;DHT22;2470;49.868;8.660;2023-02-22T16:58:36;13.90;98.60
4910;DHT22;2470;49.868;8.660;2023-02-22T17:01:03;13.80;99.10
4910;DHT22;2470;49.868;8.660;2023-02-22T17:03:28;13.80;99.70
4910;DHT22;2470;49.868;8.660;2023-02-22T17:05:54;13.80;99.90
4910;DHT22;2470;49.868;8.660;2023-02-22T17:08:19;13.80;99.90
4910;DHT22;2470;49.868;8.660;2023-02-22T17:10:45;13.70;99.90
4910;DHT22;2470;49.868;8.660;2023-02-22T17:13:11;13.70;99.90
4910;DHT22;2470;49.868;8.660;2023-02-22T17:15:36;13.60;99.90
4910;DHT22;2470;49.868;8.660;2023-02-22T17:18:12;13.60;99.90
4910;DHT22;2470;49.868;8.660;2023-02-22T17:20:42;13.50;99.90
4910;DHT22;2470;49.868;8.660;2023-02-22T17:23:10;13.50;99.90
4910;DHT22;2470;49.868;8.660;2023-02-22T17:25:39;13.40;99.90
4910;DHT22;2470;49.868;8.660;2023-02-22T17:28:06;13.40;99.90
4910;DHT22;2470;49.868;8.660;2023-02-22T17:30:32;13.40;99.90
4910;DHT22;2470;49.868;8.660;2023-02-22T17:32:59;13.30;99.90
4910;DHT22;2470;49.868;8.660;2023-02-22T17:35:30;13.30;99.90
4910;DHT22;2470;49.868;8.660;2023-02-22T17:37:57;13.30;99.90
4910;DHT22;2470;49.868;8.660;2023-02-22T17:40:24;13.30;99.90
4910;DHT22;2470;49.868;8.660;2023-02-22T17:42:50;13.30;99.90
4910;DHT22;2470;49.868;8.660;2023-02-22T17:45:21;13.20;99.90
4910;DHT22;2470;49.868;8.660;2023-02-22T17:47:48;13.30;99.90
4910;DHT22;2470;49.868;8.660;2023-02-22T17:50:14;13.20;99.90
4910;DHT22;2470;49.868;8.660;2023-02-22T17:52:40;13.10;99.90
4910;DHT22;2470;49.868;8.660;2023-02-22T17:55:07;13.10;99.90
4910;DHT22;2470;49.868;8.660;2023-02-22T17:57:33;13.10;99.90
4910;DHT22;2470;49.868;8.660;2023-02-22T17:59:59;13.10;99.90
4910;DHT22;2470;49.868;8.660;2023-02-22T18:02:24;13.00;99.90
4910;DHT22;2470;49.868;8.660;2023-02-22T18:04:50;13.00;99.90
4910;DHT22;2470;49.868;8.660;2023-02-22T18:07:16;12.80;99.90
4910;DHT22;2470;49.868;8.660;2023-02-22T18:09:44;13.00;99.90
4910;DHT22;2470;49.868;8.660;2023-02-22T18:12:10;12.90;99.90
4910;DHT22;2470;49.868;8.660;2023-02-22T18:14:35;12.90;99.90
4910;DHT22;2470;49.868;8.660;2023-02-22T18:17:02;12.90;99.90
4910;DHT22;2470;49.868;8.660;2023-02-22T18:19:28;12.90;99.90
4910;DHT22;2470;49.868;8.660;2023-02-22T18:21:54;12.90;99.90
4910;DHT22;2470;49.868;8.660;2023-02-22T18:24:31;12.80;99.90
4910;DHT22;2470;49.868;8.660;2023-02-22T18:26:57;12.80;99.90
4910;DHT22;2470;49.868;8.660;2023-02-22T18:29:23;12.70;99.90
4910;DHT22;2470;49.868;8.660;2023-02-22T18:31:51;12.80;99.90
4910;DHT22;2470;49.868;8.660;2023-02-22T18:34:17;12.70;99.90
4910;DHT22;2470;49.868;8.660;2023-02-22T18:36:42;12.60;99.90
4910;DHT22;2470;49.868;8.660;2023-02-22T18:39:09;12.60;99.90